Atwater, CA (95301)

1:08 AM PDT on July 25, 2016 (GMT -0700)
Beachwood Area - Merced | | Change Station

Elev 151 ft 37.32 °N, 120.52 °W | Updated 6 seconds ago

Clear
Clear
74.8 °F
Feels Like 76 °F
N
1.8
Wind Variable Wind from ENE
Gusts 2.5 mph

Today
High -- | Low -- °F
--% Chance of Precip.
Yesterday
High -- | Low -- °F
Precip. -- in
Pressure 29.84 in
Visibility 10.0 miles
Clouds Clear
Heat Index 76 °F
Dew Point 37 °F
Humidity 25%
Rainfall 0.00 in
Snow Depth Not available.
6:01 AM 8:15 PM
Waning Gibbous, 68% visible
METAR KMER 250755Z AUTO 29006KT 10SM CLR 23/12 A2984 RMK AO1
Pressure 29.84 in
Visibility 10.0 miles
Clouds Clear
Heat Index 76 °F
Dew Point 37 °F
Humidity 25%
Rainfall 0.00 in
Snow Depth Not available.
6:01 AM 8:15 PM
Waning Gibbous, 68% visible
METAR KMER 250755Z AUTO 29006KT 10SM CLR 23/12 A2984 RMK AO1

10-Day Weather Forecast

Almanac

Astronomy

Jul. 25, 2016 Rise Set
Actual Time
Civil Twilight
Nautical Twilight
Astronomical Twilight
Moon
Length of Visible Light
Length of Day
Tomorrow will be .
, % of the Moon is Illuminated

Today's Extremes

State Highs State Lows

Community

WunderPhotos

Upload Photos

1,927,274 photos uploaded!

WunderBlog® & News

Nearby

Air Quality

  Air Quality AQ Index Pollutant
Not available.

Snow Depth

Station Depth Elevation

Earthquake Activity

City Distance Mag. Time & Date
Minimum magnitude displayed is 2.5.

Coastal Water Temperatures

Place Temperature

Stations

Nearby Weather Stations

Station Location Temp. Windchill Dew Point Humidity Wind Precip. Elev Updated Type
                   

Watches & Warnings

There are currently no watches in effect.